createdAt,value
2023-04-20T00:00:34.919Z,60.9646
2023-04-20T00:01:36.338Z,61.1145
2023-04-20T00:02:37.847Z,61.3150
2023-04-20T00:03:39.325Z,61.3508
2023-04-20T00:04:40.679Z,60.9875
2023-04-20T00:05:42.018Z,60.9395
2023-04-20T00:06:43.465Z,61.0910
2023-04-20T00:07:44.875Z,61.0873
2023-04-20T00:08:46.234Z,60.9012
2023-04-20T00:09:47.693Z,60.9910
2023-04-20T00:10:49.143Z,60.9276
2023-04-20T00:11:50.581Z,60.9215
2023-04-20T00:12:52.002Z,60.8440
2023-04-20T00:13:53.460Z,60.7994
2023-04-20T00:14:54.807Z,61.0881
2023-04-20T00:15:56.255Z,61.1011
2023-04-20T00:16:57.787Z,61.0634
2023-04-20T00:17:59.213Z,60.9083
2023-04-20T00:19:00.566Z,60.9258
2023-04-20T00:20:02.008Z,60.7537
2023-04-20T00:21:03.406Z,60.8263
2023-04-20T00:22:04.839Z,61.0165
2023-04-20T00:23:06.265Z,60.7504
2023-04-20T00:24:07.741Z,60.9029
2023-04-20T00:25:09.163Z,60.5142
2023-04-20T00:26:10.538Z,60.1182
2023-04-20T00:27:12.043Z,60.1683
2023-04-20T00:28:13.451Z,60.1808
2023-04-20T00:29:15.023Z,60.5206
2023-04-20T00:30:16.403Z,60.6546
2023-04-20T00:31:17.794Z,60.6408
2023-04-20T00:32:19.157Z,60.7081
2023-04-20T00:33:20.599Z,60.7083
2023-04-20T00:34:22.082Z,60.5378
2023-04-20T00:35:23.478Z,60.8276
2023-04-20T00:36:24.921Z,60.5944
2023-04-20T00:37:26.347Z,60.7045
2023-04-20T00:38:27.803Z,60.7078
2023-04-20T00:39:29.296Z,60.5680
2023-04-20T00:40:30.666Z,60.4645
2023-04-20T00:41:31.980Z,60.6362
2023-04-20T00:42:33.484Z,60.5668
2023-04-20T00:43:34.874Z,60.5973
2023-04-20T00:44:36.386Z,60.5799
2023-04-20T00:45:37.799Z,60.8549
2023-04-20T00:46:39.248Z,60.6302
2023-04-20T00:47:40.691Z,60.6335
2023-04-20T00:48:42.033Z,60.3811
2023-04-20T00:49:43.523Z,60.4882
2023-04-20T00:50:44.950Z,60.4818
2023-04-20T00:51:46.353Z,60.6253
2023-04-20T00:52:47.831Z,60.4236
2023-04-20T00:53:49.227Z,60.5815
2023-04-20T00:54:50.691Z,60.6567
2023-04-20T00:55:52.150Z,60.4560
2023-04-20T00:56:53.606Z,60.1865
2023-04-20T00:57:54.962Z,60.3996
2023-04-20T00:58:56.383Z,60.5228
2023-04-20T00:59:57.909Z,60.4605
2023-04-20T01:00:59.212Z,60.3725
2023-04-20T01:02:00.748Z,60.3088
2023-04-20T01:03:02.117Z,60.5344
2023-04-20T01:04:03.589Z,60.6331
2023-04-20T01:05:04.955Z,60.5672
2023-04-20T01:06:06.394Z,60.7148
2023-04-20T01:07:07.859Z,60.7300
2023-04-20T01:08:09.275Z,60.7010
2023-04-20T01:09:10.659Z,60.5057
2023-04-20T01:10:12.164Z,60.1109
2023-04-20T01:11:13.588Z,60.0972
2023-04-20T01:12:14.962Z,60.5344
2023-04-20T01:13:16.377Z,60.1118
2023-04-20T01:14:17.793Z,59.9721
2023-04-20T01:15:19.318Z,60.2756
2023-04-20T01:16:20.724Z,60.3915
2023-04-20T01:17:22.131Z,60.2061
2023-04-20T01:18:23.586Z,60.2714
2023-04-20T01:19:24.919Z,60.2896
2023-04-20T01:20:26.392Z,60.5561
2023-04-20T01:21:27.864Z,60.5142
2023-04-20T01:22:29.212Z,60.4860
2023-04-20T01:23:30.687Z,60.5572
2023-04-20T01:24:32.161Z,60.6671
2023-04-20T01:25:33.572Z,60.6076
2023-04-20T01:26:35.042Z,60.4674
2023-04-20T01:27:36.392Z,60.5240
2023-04-20T01:28:37.854Z,60.4676
2023-04-20T01:29:39.318Z,60.8161
2023-04-20T01:30:40.735Z,60.8096
2023-04-20T01:31:42.186Z,60.2436
2023-04-20T01:32:43.610Z,59.7291
2023-04-20T01:33:44.997Z,59.9416
2023-04-20T01:34:46.435Z,60.1108
2023-04-20T01:35:47.893Z,60.0254
2023-04-20T01:36:49.240Z,60.2951
2023-04-20T01:37:50.711Z,60.3986
2023-04-20T01:38:52.214Z,60.3783
2023-04-20T01:39:53.708Z,60.4937
2023-04-20T01:40:55.055Z,60.4036
2023-04-20T01:41:56.559Z,60.2389
2023-04-20T01:42:58.005Z,60.3477
2023-04-20T01:43:59.375Z,60.5376
2023-04-20T01:45:00.829Z,60.6032
2023-04-20T01:46:02.220Z,60.5753
2023-04-20T01:47:03.717Z,60.5855
2023-04-20T01:48:05.082Z,60.4063
2023-04-20T01:49:06.542Z,60.2856
2023-04-20T01:50:07.931Z,60.3564
2023-04-20T01:51:09.401Z,59.8997
2023-04-20T01:52:10.838Z,60.0559
2023-04-20T01:53:12.273Z,60.1624
2023-04-20T01:54:13.700Z,60.2781
2023-04-20T01:55:15.220Z,60.1348
2023-04-20T01:56:16.686Z,60.4706
2023-04-20T01:57:18.161Z,60.6640
2023-04-20T01:58:19.515Z,60.5848
2023-04-20T01:59:21.008Z,60.5031
2023-04-20T02:00:22.387Z,60.5673
2023-04-20T02:01:23.820Z,60.6002
2023-04-20T02:02:25.461Z,60.1990
2023-04-20T02:03:26.716Z,60.0050
2023-04-20T02:04:28.135Z,60.2602
2023-04-20T02:05:29.579Z,60.4331
2023-04-20T02:06:30.987Z,60.2818
2023-04-20T02:07:32.515Z,60.2455
2023-04-20T02:08:33.741Z,60.6194
2023-04-20T02:09:35.260Z,60.5038
2023-04-20T02:10:36.711Z,60.3358
2023-04-20T02:11:38.125Z,60.5112
2023-04-20T02:12:39.629Z,60.4398
2023-04-20T02:13:41.049Z,60.4377
2023-04-20T02:14:42.473Z,60.5871
2023-04-20T02:15:43.932Z,60.5828
2023-04-20T02:16:45.327Z,60.3176
2023-04-20T02:17:46.783Z,60.1829
2023-04-20T02:18:48.064Z,60.1051
2023-04-20T02:19:49.555Z,60.3590
2023-04-20T02:20:50.900Z,60.2667
2023-04-20T02:21:52.415Z,60.1484
2023-04-20T02:22:53.951Z,60.1625
2023-04-20T02:23:55.456Z,60.2264
2023-04-20T02:24:56.750Z,60.3588
2023-04-20T02:25:58.173Z,60.4253
2023-04-20T02:26:59.593Z,60.4187
2023-04-20T02:28:01.092Z,60.3352
2023-04-20T02:29:02.475Z,60.4321
2023-04-20T02:30:03.923Z,60.5513
2023-04-20T02:31:05.338Z,60.5466
2023-04-20T02:32:06.656Z,60.6276
2023-04-20T02:33:08.254Z,60.5941
2023-04-20T02:34:09.735Z,60.3802
2023-04-20T02:35:11.020Z,60.5236
2023-04-20T02:36:12.598Z,60.4468
2023-04-20T02:37:13.908Z,60.1992
2023-04-20T02:38:15.391Z,60.1783
2023-04-20T02:39:17.031Z,60.2419
2023-04-20T02:40:18.232Z,60.4409
2023-04-20T02:41:19.647Z,60.3057
2023-04-20T02:42:21.004Z,60.4838
2023-04-20T02:43:22.435Z,60.5407
2023-04-20T02:44:23.938Z,60.5823
2023-04-20T02:45:25.349Z,60.2467
2023-04-20T02:46:26.787Z,59.7823
2023-04-20T02:47:28.234Z,60.0422
2023-04-20T02:48:29.724Z,60.1104
2023-04-20T02:49:31.054Z,60.1234
2023-04-20T02:50:32.482Z,60.3091
2023-04-20T02:51:33.921Z,60.3392
2023-04-20T02:52:35.253Z,60.3752
2023-04-20T02:53:36.799Z,59.9192
2023-04-20T02:54:38.200Z,59.4832
2023-04-20T02:55:39.677Z,59.5993
2023-04-20T02:56:41.061Z,59.9027
2023-04-20T02:57:42.506Z,59.8791
2023-04-20T02:58:43.968Z,60.0012
2023-04-20T02:59:45.342Z,60.3808
2023-04-20T03:00:46.796Z,59.6505
2023-04-20T03:01:48.203Z,59.3707
2023-04-20T03:02:49.830Z,59.3698
2023-04-20T03:03:51.331Z,58.7824
2023-04-20T03:04:52.728Z,58.6686
2023-04-20T03:05:55.181Z,58.2800
2023-04-20T03:06:55.365Z,58.1289
2023-04-20T03:07:56.904Z,58.3002
2023-04-20T03:08:58.248Z,58.4267
2023-04-20T03:09:59.661Z,57.9791
2023-04-20T03:11:01.124Z,57.5936
2023-04-20T03:12:02.541Z,57.4034
2023-04-20T03:13:03.941Z,57.5107
2023-04-20T03:14:05.429Z,57.4611
2023-04-20T03:15:06.802Z,57.3877
2023-04-20T03:16:08.365Z,57.4819
2023-04-20T03:17:09.683Z,57.4600
2023-04-20T03:18:11.010Z,57.1842
2023-04-20T03:19:12.570Z,56.9803
2023-04-20T03:20:13.878Z,56.9785
2023-04-20T03:21:15.459Z,57.1607
2023-04-20T03:22:16.798Z,57.0586
2023-04-20T03:23:18.186Z,57.1317
2023-04-20T03:24:19.672Z,56.8909
2023-04-20T03:25:20.990Z,57.0246
2023-04-20T03:26:22.531Z,56.8193
2023-04-20T03:27:23.985Z,56.6949
2023-04-20T03:28:25.326Z,56.6934
2023-04-20T03:29:26.896Z,56.6159
2023-04-20T03:30:28.249Z,56.6169
2023-04-20T03:31:29.753Z,56.6621
2023-04-20T03:32:32.722Z,56.4410
2023-04-20T03:33:32.564Z,56.3707
2023-04-20T03:34:34.053Z,56.7498
2023-04-20T03:35:35.411Z,56.6981
2023-04-20T03:36:36.817Z,56.4094
2023-04-20T03:37:38.292Z,56.1009
2023-04-20T03:38:39.654Z,56.2326
2023-04-20T03:39:41.157Z,56.3685
2023-04-20T03:40:42.569Z,56.1052
2023-04-20T03:41:44.022Z,56.1303
2023-04-20T03:42:45.359Z,56.3595
2023-04-20T03:43:46.761Z,56.1491
2023-04-20T03:44:48.320Z,56.2908
2023-04-20T03:45:49.739Z,56.3248
2023-04-20T03:46:51.149Z,56.3708
2023-04-20T03:47:52.612Z,56.3525
2023-04-20T03:48:54.034Z,56.3256
2023-04-20T03:49:55.488Z,56.4613
2023-04-20T03:50:56.824Z,56.4554
2023-04-20T03:51:58.326Z,56.5121
2023-04-20T03:52:59.681Z,56.5721
2023-04-20T03:54:01.192Z,56.3871
2023-04-20T03:55:02.603Z,56.4197
2023-04-20T03:56:03.962Z,56.4062
2023-04-20T03:57:05.364Z,56.3583
2023-04-20T03:58:06.897Z,56.1514
2023-04-20T03:59:08.213Z,56.2104
2023-04-20T04:00:09.698Z,56.1427
2023-04-20T04:01:11.118Z,56.4994
2023-04-20T04:02:12.525Z,56.3971
2023-04-20T04:03:14.153Z,56.4447
2023-04-20T04:04:15.541Z,56.2977
2023-04-20T04:05:16.915Z,56.5418
2023-04-20T04:06:18.240Z,56.4661
2023-04-20T04:07:19.632Z,56.0818
2023-04-20T04:08:21.002Z,56.3405
2023-04-20T04:09:22.629Z,56.3209
2023-04-20T04:10:24.013Z,56.2803
2023-04-20T04:11:25.446Z,56.2690
2023-04-20T04:12:26.892Z,56.1290
2023-04-20T04:13:28.203Z,56.3239
2023-04-20T04:14:29.544Z,56.3727
2023-04-20T04:15:31.050Z,56.2505
2023-04-20T04:16:32.620Z,56.2928
2023-04-20T04:17:33.896Z,56.2631
2023-04-20T04:18:35.393Z,56.1678
2023-04-20T04:19:36.821Z,56.2344
2023-04-20T04:20:38.298Z,56.1298
2023-04-20T04:21:39.720Z,55.9731
2023-04-20T04:22:41.013Z,56.0392
2023-04-20T04:23:42.491Z,56.2013
2023-04-20T04:24:43.962Z,56.8683
2023-04-20T04:25:45.459Z,56.2040
2023-04-20T04:26:46.866Z,55.7794
2023-04-20T04:27:48.330Z,55.1414
2023-04-20T04:28:49.563Z,54.7877
2023-04-20T04:29:51.178Z,54.7489
2023-04-20T04:30:52.645Z,54.7728
2023-04-20T04:31:54.198Z,54.8152
2023-04-20T04:32:55.532Z,54.8334
2023-04-20T04:33:56.781Z,54.7123
2023-04-20T04:34:58.152Z,54.7625
2023-04-20T04:35:59.715Z,54.9740
2023-04-20T04:37:01.136Z,54.8618
2023-04-20T04:38:02.541Z,54.8319
2023-04-20T04:39:03.938Z,54.7645
2023-04-20T04:40:05.432Z,54.7494
2023-04-20T04:41:06.875Z,54.7994
2023-04-20T04:42:08.145Z,54.8491
2023-04-20T04:43:09.631Z,54.8573
2023-04-20T04:44:11.156Z,54.8537
2023-04-20T04:45:12.513Z,54.7427
2023-04-20T04:46:14.044Z,54.6611
2023-04-20T04:47:15.380Z,54.8514
2023-04-20T04:48:16.771Z,54.8663
2023-04-20T04:49:18.366Z,54.9160
2023-04-20T04:50:19.606Z,55.1015
2023-04-20T04:51:21.150Z,54.6579
2023-04-20T04:52:22.421Z,54.6117
2023-04-20T04:53:23.957Z,54.9207
2023-04-20T04:54:25.340Z,54.8758
2023-04-20T04:55:26.825Z,54.1843
2023-04-20T04:56:28.243Z,53.4579
2023-04-20T04:57:29.643Z,53.0641
2023-04-20T04:58:31.035Z,52.6439
2023-04-20T04:59:32.486Z,52.2914
2023-04-20T05:00:33.877Z,52.2099
2023-04-20T05:01:35.414Z,51.9424
2023-04-20T05:02:37.245Z,51.5884
2023-04-20T05:03:38.341Z,51.3410
2023-04-20T05:04:39.667Z,51.0095
2023-04-20T05:05:41.056Z,51.4038
2023-04-20T05:06:42.554Z,51.4701
2023-04-20T05:07:43.957Z,50.6823
2023-04-20T05:08:45.347Z,50.3757
2023-04-20T05:09:46.748Z,49.9665
2023-04-20T05:10:48.134Z,50.1049
2023-04-20T05:11:49.605Z,49.8002
2023-04-20T05:12:51.089Z,49.5887
2023-04-20T05:13:52.507Z,49.2062
2023-04-20T05:14:53.889Z,49.5773
2023-04-20T05:15:55.395Z,49.2830
2023-04-20T05:16:56.738Z,49.1206
2023-04-20T05:17:58.186Z,48.8071
2023-04-20T05:18:59.564Z,48.8655
2023-04-20T05:20:01.030Z,48.8101
2023-04-20T05:21:02.470Z,48.6637
2023-04-20T05:22:04.013Z,49.0367
2023-04-20T05:23:05.487Z,48.7944
2023-04-20T05:24:06.754Z,48.3856
2023-04-20T05:25:08.196Z,48.1709
2023-04-20T05:26:09.638Z,48.1354
2023-04-20T05:27:11.026Z,47.9431
2023-04-20T05:28:12.488Z,48.1795
2023-04-20T05:29:13.805Z,48.0551
2023-04-20T05:30:20.315Z,48.0355
2023-04-20T05:31:16.719Z,47.9031
2023-04-20T05:32:18.272Z,48.0796
2023-04-20T05:33:19.611Z,47.9160
2023-04-20T05:34:20.976Z,48.1607
2023-04-20T05:35:22.433Z,47.9996
2023-04-20T05:36:23.873Z,47.7655
2023-04-20T05:37:25.166Z,48.1637
2023-04-20T05:38:26.590Z,47.9676
2023-04-20T05:39:28.141Z,48.2333
2023-04-20T05:40:29.571Z,48.1719
2023-04-20T05:41:30.998Z,48.1948
2023-04-20T05:42:32.451Z,48.0091
2023-04-20T05:43:33.809Z,47.3883
2023-04-20T05:44:35.251Z,47.4984
2023-04-20T05:45:36.736Z,47.4282
2023-04-20T05:46:38.113Z,47.3370
2023-04-20T05:47:39.669Z,47.3801
2023-04-20T05:48:40.933Z,47.7328
2023-04-20T05:49:42.444Z,48.2038
2023-04-20T05:50:43.893Z,48.3120
2023-04-20T05:51:45.318Z,48.5475
2023-04-20T05:52:46.808Z,48.6511
2023-04-20T05:53:48.207Z,48.5784
2023-04-20T05:54:49.541Z,48.1803
2023-04-20T05:55:50.979Z,47.6735
2023-04-20T05:56:52.506Z,47.5733
2023-04-20T05:57:53.911Z,47.9283
2023-04-20T05:58:55.399Z,48.1957
2023-04-20T05:59:56.815Z,48.1018
2023-04-20T06:00:58.198Z,48.3208
2023-04-20T06:01:59.728Z,48.0621
2023-04-20T06:03:01.309Z,48.3849
2023-04-20T06:04:02.879Z,48.4517
2023-04-20T06:05:03.928Z,48.5546
2023-04-20T06:06:05.415Z,47.8435
2023-04-20T06:07:06.805Z,47.7195
2023-04-20T06:08:08.259Z,48.0161
2023-04-20T06:09:09.696Z,48.2807
2023-04-20T06:10:11.113Z,48.5325
2023-04-20T06:11:12.469Z,48.4438
2023-04-20T06:12:13.945Z,48.3974
2023-04-20T06:13:15.412Z,48.1813
2023-04-20T06:14:17.273Z,47.8367
2023-04-20T06:15:18.218Z,48.3722
2023-04-20T06:16:19.688Z,48.3954
2023-04-20T06:17:21.091Z,48.2578
2023-04-20T06:18:22.594Z,48.2286
2023-04-20T06:19:23.994Z,47.8861
2023-04-20T06:20:25.409Z,47.6179
2023-04-20T06:21:26.837Z,48.2342
2023-04-20T06:22:28.288Z,48.3370
2023-04-20T06:23:29.630Z,48.6167
2023-04-20T06:24:31.039Z,48.0627
2023-04-20T06:25:32.492Z,48.0762
2023-04-20T06:26:33.850Z,47.9754
2023-04-20T06:27:35.376Z,48.4030
2023-04-20T06:28:36.844Z,48.4963
2023-04-20T06:29:38.319Z,48.4012
2023-04-20T06:30:39.568Z,48.0288
2023-04-20T06:31:41.137Z,47.8613
2023-04-20T06:32:42.552Z,47.4364
2023-04-20T06:33:43.925Z,48.4090
2023-04-20T06:34:45.413Z,48.3440
2023-04-20T06:35:46.777Z,48.1735
2023-04-20T06:36:48.198Z,47.7659
2023-04-20T06:37:49.665Z,47.6780
2023-04-20T06:38:51.038Z,47.4560
2023-04-20T06:39:52.559Z,48.0746
2023-04-20T06:40:53.956Z,48.3641
2023-04-20T06:41:55.345Z,48.2029
2023-04-20T06:42:56.702Z,48.0135
2023-04-20T06:43:58.241Z,47.8040
2023-04-20T06:44:59.636Z,47.3474
2023-04-20T06:46:01.085Z,47.7497
2023-04-20T06:47:02.635Z,48.0615
2023-04-20T06:48:03.954Z,47.9453
2023-04-20T06:49:05.356Z,47.5788
2023-04-20T06:50:06.854Z,47.6146
2023-04-20T06:51:08.247Z,47.2873
2023-04-20T06:52:09.618Z,47.8288
2023-04-20T06:53:11.073Z,48.0812
2023-04-20T06:54:12.524Z,47.7443
2023-04-20T06:55:13.891Z,47.2350
2023-04-20T06:56:15.263Z,47.5472
2023-04-20T06:57:16.768Z,47.4463
2023-04-20T06:58:18.168Z,47.8530
2023-04-20T06:59:19.894Z,48.0653
2023-04-20T07:00:21.094Z,48.1556
2023-04-20T07:01:22.635Z,47.8104
2023-04-20T07:02:24.031Z,47.3701
2023-04-20T07:03:25.578Z,46.9438
2023-04-20T07:04:26.817Z,47.7590
2023-04-20T07:05:28.231Z,48.2043
2023-04-20T07:06:29.570Z,47.9610
2023-04-20T07:07:31.057Z,47.5674
2023-04-20T07:08:32.449Z,47.6351
2023-04-20T07:09:33.987Z,47.3733
2023-04-20T07:10:35.362Z,47.8983
2023-04-20T07:11:36.759Z,47.8784
2023-04-20T07:12:38.540Z,47.4578
2023-04-20T07:13:39.672Z,47.4951
2023-04-20T07:14:41.111Z,47.1629
2023-04-20T07:15:42.526Z,47.4825
2023-04-20T07:16:43.899Z,47.9775
2023-04-20T07:17:45.438Z,47.8375
2023-04-20T07:18:46.850Z,47.5471
2023-04-20T07:19:48.234Z,47.3781
2023-04-20T07:20:49.658Z,47.5152
2023-04-20T07:21:51.061Z,47.5321
2023-04-20T07:22:52.497Z,47.7433
2023-04-20T07:23:53.903Z,47.6165
2023-04-20T07:24:55.404Z,47.2736
2023-04-20T07:25:56.845Z,47.2279
2023-04-20T07:26:58.171Z,46.8796
2023-04-20T07:27:59.709Z,47.4767
2023-04-20T07:29:01.081Z,48.1316
2023-04-20T07:30:02.528Z,47.9806
2023-04-20T07:31:03.887Z,47.3272
2023-04-20T07:32:05.385Z,47.2278
2023-04-20T07:33:06.805Z,47.0450
2023-04-20T07:34:08.246Z,47.5851
2023-04-20T07:35:09.703Z,47.9524
2023-04-20T07:36:11.040Z,47.8058
2023-04-20T07:37:12.524Z,47.1605
2023-04-20T07:38:13.982Z,46.8170
2023-04-20T07:39:15.697Z,46.9599
2023-04-20T07:40:16.848Z,47.7016
2023-04-20T07:41:18.323Z,47.9041
2023-04-20T07:42:19.644Z,47.0869
2023-04-20T07:43:21.125Z,47.1531
2023-04-20T07:44:22.503Z,46.6859
2023-04-20T07:45:24.014Z,47.5463
2023-04-20T07:46:25.425Z,48.0353
2023-04-20T07:47:26.855Z,47.6780
2023-04-20T07:48:28.267Z,47.4405
2023-04-20T07:49:29.720Z,47.3044
2023-04-20T07:50:31.219Z,46.7475
2023-04-20T07:51:32.656Z,47.7133
2023-04-20T07:52:33.896Z,48.1815
2023-04-20T07:53:35.455Z,47.7058
2023-04-20T07:54:36.855Z,47.4134
2023-04-20T07:55:38.278Z,47.3073
2023-04-20T07:56:39.749Z,47.1531
2023-04-20T07:57:41.086Z,47.8497
2023-04-20T07:58:42.510Z,48.0982
2023-04-20T07:59:43.995Z,47.8666
2023-04-20T08:00:45.398Z,47.4865
2023-04-20T08:01:46.840Z,47.3411
2023-04-20T08:02:48.307Z,47.0330
2023-04-20T08:03:49.850Z,47.8665
2023-04-20T08:04:51.396Z,48.2145
2023-04-20T08:05:52.563Z,47.8774
2023-04-20T08:06:53.944Z,47.4238
2023-04-20T08:07:55.315Z,47.2333
2023-04-20T08:08:56.794Z,47.3240
2023-04-20T08:09:58.197Z,47.7159
2023-04-20T08:10:59.685Z,47.4557
2023-04-20T08:12:01.135Z,47.1309
2023-04-20T08:13:02.545Z,47.2363
2023-04-20T08:14:04.037Z,47.1485
2023-04-20T08:15:05.360Z,47.6978
2023-04-20T08:16:07.562Z,47.8843
2023-04-20T08:17:08.192Z,47.6503
2023-04-20T08:18:09.624Z,47.3025
2023-04-20T08:19:11.020Z,47.1750
2023-04-20T08:20:12.476Z,46.8438
2023-04-20T08:21:14.014Z,47.8851
2023-04-20T08:22:15.406Z,48.1127
2023-04-20T08:23:16.730Z,47.6362
2023-04-20T08:24:18.480Z,47.5910
2023-04-20T08:25:19.546Z,47.2967
2023-04-20T08:26:21.157Z,47.4119
2023-04-20T08:27:22.484Z,48.0563
2023-04-20T08:28:33.426Z,47.9156
2023-04-20T08:29:25.289Z,47.4870
2023-04-20T08:30:26.740Z,47.3405
2023-04-20T08:31:28.292Z,47.4855
2023-04-20T08:32:29.686Z,47.9969
2023-04-20T08:33:31.019Z,48.3093
2023-04-20T08:34:32.450Z,47.5107
2023-04-20T08:35:33.866Z,47.3081
2023-04-20T08:36:35.267Z,47.2203
2023-04-20T08:37:36.768Z,47.3655
2023-04-20T08:38:38.124Z,48.0294
2023-04-20T08:39:39.636Z,47.7845
2023-04-20T08:40:40.936Z,47.1811
2023-04-20T08:41:42.457Z,47.0782
2023-04-20T08:42:43.856Z,47.3061
2023-04-20T08:43:45.298Z,47.6513
2023-04-20T08:44:46.753Z,48.0423
2023-04-20T08:45:48.122Z,47.3693
2023-04-20T08:46:49.603Z,47.1688
2023-04-20T08:47:51.050Z,47.2483
2023-04-20T08:48:52.248Z,47.4865
2023-04-20T08:49:53.786Z,48.0644
2023-04-20T08:50:55.269Z,47.8480
2023-04-20T08:51:56.685Z,47.5126
2023-04-20T08:52:58.089Z,47.8079
2023-04-20T08:53:59.537Z,47.7618
2023-04-20T08:55:00.848Z,48.4636
2023-04-20T08:56:02.399Z,49.4517
2023-04-20T08:57:03.868Z,49.3283
2023-04-20T08:58:05.279Z,49.1691
2023-04-20T08:59:06.602Z,48.9260
2023-04-20T09:00:08.070Z,49.3253
2023-04-20T09:01:09.617Z,50.4102
2023-04-20T09:02:11.136Z,51.3429
2023-04-20T09:03:12.569Z,50.7354
2023-04-20T09:04:14.069Z,50.3411
2023-04-20T09:05:15.215Z,50.6312
2023-04-20T09:06:16.621Z,50.6010
2023-04-20T09:07:18.041Z,51.5558
2023-04-20T09:08:19.524Z,52.7087
2023-04-20T09:09:20.900Z,51.7919
2023-04-20T09:10:22.397Z,51.4361
2023-04-20T09:11:23.731Z,51.1309
2023-04-20T09:12:25.313Z,51.9575
2023-04-20T09:13:26.696Z,52.6243
2023-04-20T09:14:28.052Z,52.8947
2023-04-20T09:15:29.888Z,52.0050
2023-04-20T09:16:30.934Z,51.7640
2023-04-20T09:17:32.411Z,52.0442
2023-04-20T09:18:33.811Z,53.0174
2023-04-20T09:19:35.182Z,53.2055
2023-04-20T09:20:36.610Z,53.3218
2023-04-20T09:21:38.015Z,52.8276
2023-04-20T09:22:39.516Z,52.1758
2023-04-20T09:23:40.896Z,52.6918
2023-04-20T09:24:42.237Z,53.4856
2023-04-20T09:25:43.756Z,54.9275
2023-04-20T09:26:45.257Z,54.1781
2023-04-20T09:27:46.599Z,53.1876
